Time;durP1;ratioP1;P1;durP2;ratioP2;P2;SDS_P1;SDS_P2;PMS_P1;PMS_P2;Temp;Humidity;BMP_temperature;BMP_pressure;BME280_temperature;BME280_humidity;BME280_pressure;Samples;Min_cycle;Max_cycle;Signal;HPM_P1;HPM_P2
2022/03/30 00:00:44;;;;;;;13.30;7.47;;;8.40;95.50;;;;;;5105025;28;20036;-71
2022/03/30 00:03:11;;;;;;;13.55;7.68;;;8.30;95.50;;;;;;5092252;28;20039;-71
2022/03/30 00:05:39;;;;;;;17.65;7.72;;;8.20;96.40;;;;;;5092928;28;20373;-70
2022/03/30 00:08:06;;;;;;;14.90;7.05;;;8.00;97.20;;;;;;5095531;28;20400;-71
2022/03/30 00:10:34;;;;;;;25.73;7.55;;;7.90;97.80;;;;;;5104119;28;20044;-71
2022/03/30 00:13:02;;;;;;;19.30;7.85;;;7.80;98.20;;;;;;5112005;28;20039;-71
2022/03/30 00:15:30;;;;;;;15.70;7.57;;;7.80;98.10;;;;;;5111298;28;20036;-71
2022/03/30 00:17:57;;;;;;;14.52;7.40;;;7.70;98.30;;;;;;5103191;28;20036;-71
2022/03/30 00:20:24;;;;;;;14.05;6.93;;;7.60;99.00;;;;;;5092522;28;20066;-71
2022/03/30 00:22:51;;;;;;;16.17;7.38;;;7.50;99.40;;;;;;5075547;28;20048;-71
2022/03/30 00:25:20;;;;;;;16.98;7.28;;;7.50;99.90;;;;;;5108305;28;20058;-71
2022/03/30 00:27:47;;;;;;;13.65;7.13;;;7.40;99.70;;;;;;5092672;28;20055;-71
2022/03/30 00:30:17;;;;;;;17.10;7.78;;;7.40;99.90;;;;;;5074228;28;20048;-71
2022/03/30 00:32:45;;;;;;;14.60;7.47;;;7.40;99.90;;;;;;5091943;28;20040;-71
2022/03/30 00:35:13;;;;;;;15.75;7.53;;;7.40;99.90;;;;;;5104332;28;20445;-71
2022/03/30 00:37:40;;;;;;;18.25;7.28;;;7.20;99.90;;;;;;5112726;28;20059;-71
2022/03/30 00:40:12;;;;;;;14.43;7.05;;;7.20;99.90;;;;;;5112674;28;20093;-71
2022/03/30 00:42:39;;;;;;;17.75;7.03;;;7.20;99.90;;;;;;5106890;28;20396;-71
2022/03/30 00:45:12;;;;;;;18.10;8.45;;;7.20;99.90;;;;;;5108951;28;20097;-70
2022/03/30 00:47:39;;;;;;;13.30;7.57;;;7.10;99.90;;;;;;5092257;28;20047;-71
2022/03/30 00:50:08;;;;;;;17.27;7.93;;;7.00;99.90;;;;;;5092222;28;20047;-70
2022/03/30 00:52:36;;;;;;;13.18;7.35;;;6.90;99.90;;;;;;5100081;28;20040;-70
2022/03/30 00:55:05;;;;;;;19.35;7.63;;;6.90;99.90;;;;;;5111157;28;20123;-70
2022/03/30 00:57:33;;;;;;;19.30;6.90;;;6.80;99.90;;;;;;5112454;28;20044;-70
2022/03/30 01:00:01;;;;;;;17.75;7.28;;;6.70;99.90;;;;;;5111357;28;20491;-70
2022/03/30 01:02:29;;;;;;;;;;;6.60;99.90;;;;;;5106149;28;20408;-70
2022/03/30 01:04:57;;;;;;;17.52;7.20;;;6.60;99.90;;;;;;5094014;28;20019;-70
2022/03/30 01:07:25;;;;;;;13.77;6.88;;;6.70;99.90;;;;;;5091826;28;20040;-71
2022/03/30 01:09:52;;;;;;;14.68;7.45;;;6.70;99.90;;;;;;5092644;28;20072;-70
2022/03/30 01:12:20;;;;;;;27.63;8.55;;;6.80;99.90;;;;;;5103065;28;20437;-70
2022/03/30 01:14:47;;;;;;;14.27;7.43;;;6.70;99.90;;;;;;5111432;28;20450;-71
2022/03/30 01:17:15;;;;;;;;;;;6.70;99.90;;;;;;5111463;28;20055;-70
2022/03/30 01:19:42;;;;;;;18.67;7.93;;;6.70;99.90;;;;;;5107668;28;20495;-70
2022/03/30 01:22:09;;;;;;;15.70;7.88;;;6.70;99.90;;;;;;5103042;28;20101;-70
2022/03/30 01:24:37;;;;;;;20.25;8.98;;;6.70;99.90;;;;;;5112124;28;20059;-70
2022/03/30 01:27:04;;;;;;;14.40;7.55;;;6.60;99.90;;;;;;5111911;28;20066;-70
2022/03/30 01:32:27;;;;;;;14.80;8.02;;;6.10;99.90;;;;;;5108584;28;20072;-70
2022/03/30 01:34:57;;;;;;;15.68;7.88;;;6.00;99.90;;;;;;5102190;28;20409;-69
2022/03/30 01:37:27;;;;;;;23.85;8.38;;;5.80;99.90;;;;;;5099358;28;20126;-70
2022/03/30 01:39:56;;;;;;;18.23;7.63;;;5.80;99.90;;;;;;5090996;28;20545;-70
2022/03/30 01:42:24;;;;;;;21.50;8.68;;;5.80;99.90;;;;;;5104503;28;20054;-70
2022/03/30 01:44:52;;;;;;;15.98;7.63;;;5.80;99.90;;;;;;5103365;28;20040;-70
2022/03/30 01:47:19;;;;;;;14.85;7.55;;;5.70;99.90;;;;;;5111721;28;20044;-69
2022/03/30 01:49:47;;;;;;;22.10;8.02;;;5.70;99.90;;;;;;5111759;28;20036;-70
2022/03/30 01:52:16;;;;;;;18.60;7.80;;;5.70;99.90;;;;;;5109239;28;20545;-69
2022/03/30 01:54:44;;;;;;;18.00;8.48;;;5.80;99.90;;;;;;5084915;28;20380;-70
2022/03/30 01:57:14;;;;;;;15.55;8.10;;;5.80;99.90;;;;;;5091496;28;20485;-70
2022/03/30 01:59:43;;;;;;;14.63;7.80;;;5.80;99.90;;;;;;5098531;28;20553;-70
2022/03/30 02:02:11;;;;;;;12.10;7.13;;;5.80;99.90;;;;;;5105217;28;20040;-70
2022/03/30 02:04:39;;;;;;;19.75;8.35;;;5.80;99.90;;;;;;5104374;28;20496;-70
2022/03/30 02:07:09;;;;;;;15.90;7.68;;;5.90;99.90;;;;;;5110726;28;20149;-70
2022/03/30 02:09:37;;;;;;;19.55;8.13;;;6.00;99.90;;;;;;5101634;28;20416;-69
2022/03/30 02:12:05;;;;;;;17.70;8.05;;;6.10;99.90;;;;;;5102600;28;20050;-70
2022/03/30 02:14:33;;;;;;;16.00;7.70;;;6.10;99.90;;;;;;5111392;28;20051;-70
2022/03/30 02:17:00;;;;;;;;;;;6.10;99.90;;;;;;5110506;28;20100;-69
2022/03/30 02:19:27;;;;;;;17.02;7.75;;;6.10;99.90;;;;;;5105062;28;19924;-69
2022/03/30 02:21:54;;;;;;;13.40;7.03;;;6.20;99.90;;;;;;5093196;28;20492;-69
2022/03/30 02:24:22;;;;;;;15.45;7.50;;;6.20;99.90;;;;;;5091117;28;20090;-69
2022/03/30 02:26:49;;;;;;;;;;;6.20;99.90;;;;;;5103075;28;20078;-69
2022/03/30 02:29:16;;;;;;;16.42;7.68;;;6.30;99.90;;;;;;5102554;28;19927;-70
2022/03/30 02:31:45;;;;;;;12.73;7.00;;;6.30;99.90;;;;;;5094433;28;20047;-69
2022/03/30 02:34:12;;;;;;;18.15;8.50;;;6.30;99.90;;;;;;5094905;28;20040;-70
2022/03/30 02:36:40;;;;;;;;;;;6.30;99.90;;;;;;5111457;28;20047;-69
2022/03/30 02:39:08;;;;;;;18.25;8.35;;;6.20;99.90;;;;;;5095098;28;19929;-70
2022/03/30 02:41:35;;;;;;;18.60;8.35;;;6.00;99.90;;;;;;5094331;28;20089;-69
2022/03/30 02:44:01;;;;;;;25.90;9.38;;;5.90;99.90;;;;;;5105317;28;20039;-69
2022/03/30 02:46:29;;;;;;;16.88;8.90;;;5.90;99.90;;;;;;5100712;28;20048;-69
2022/03/30 02:48:56;;;;;;;18.40;9.45;;;5.90;99.90;;;;;;5094490;28;20071;-69
2022/03/30 02:51:25;;;;;;;26.55;9.40;;;5.90;99.90;;;;;;5098926;28;20040;-69
2022/03/30 02:53:52;;;;;;;19.02;9.77;;;6.00;99.90;;;;;;5106071;28;20048;-70
2022/03/30 02:56:19;;;;;;;17.27;10.07;;;6.10;99.90;;;;;;5114764;28;20036;-70
2022/03/30 02:58:46;;;;;;;21.63;9.93;;;6.10;99.90;;;;;;5096355;28;20047;-69
2022/03/30 03:01:13;;;;;;;20.50;9.15;;;6.10;99.90;;;;;;5108643;28;20048;-70
2022/03/30 03:03:43;;;;;;;;;;;6.10;99.90;;;;;;5110398;28;20093;-70
2022/03/30 03:06:10;;;;;;;17.77;10.63;;;6.10;99.90;;;;;;5114608;28;19943;-70
2022/03/30 03:08:37;;;;;;;23.13;10.88;;;6.10;99.90;;;;;;5114586;28;20054;-70
2022/03/30 03:11:05;;;;;;;27.58;11.18;;;6.00;99.90;;;;;;5103481;28;20495;-70
2022/03/30 03:13:32;;;;;;;23.88;10.45;;;6.00;99.90;;;;;;5108587;28;20039;-69
2022/03/30 03:15:59;;;;;;;21.95;10.32;;;6.00;99.90;;;;;;5114444;28;20742;-70
2022/03/30 03:18:26;;;;;;;20.13;9.38;;;6.00;99.90;;;;;;5113803;28;20035;-69
2022/03/30 03:20:53;;;;;;;12.13;6.22;;;5.90;99.90;;;;;;5105270;28;20052;-70
2022/03/30 03:23:20;;;;;;;21.27;9.77;;;5.70;99.90;;;;;;5110598;28;20388;-69
2022/03/30 03:25:47;;;;;;;;;;;5.60;99.90;;;;;;5110808;28;20105;-69
2022/03/30 03:28:15;;;;;;;21.55;9.82;;;5.50;99.90;;;;;;5102765;28;20319;-69
2022/03/30 03:30:42;;;;;;;25.92;9.95;;;5.40;99.90;;;;;;5107129;28;20040;-69
2022/03/30 03:33:10;;;;;;;20.90;9.73;;;5.40;99.90;;;;;;5110000;28;20039;-69
2022/03/30 03:35:38;;;;;;;25.17;11.30;;;5.50;99.90;;;;;;5100723;28;20058;-69
2022/03/30 03:38:06;;;;;;;29.33;13.13;;;5.50;99.90;;;;;;5103858;28;20427;-69
2022/03/30 03:40:33;;;;;;;30.73;12.93;;;5.60;99.90;;;;;;5108035;28;20036;-69
2022/03/30 03:43:00;;;;;;;24.17;8.75;;;5.60;99.90;;;;;;5087556;28;20047;-70
2022/03/30 03:45:28;;;;;;;15.95;8.60;;;5.50;99.90;;;;;;5108629;28;20056;-69
2022/03/30 03:47:56;;;;;;;19.77;10.00;;;5.40;99.90;;;;;;5102877;28;20053;-69
2022/03/30 03:50:25;;;;;;;28.50;12.05;;;5.30;99.90;;;;;;5109385;28;20039;-70
2022/03/30 03:52:50;;;;;;;23.08;11.90;;;5.30;99.90;;;;;;5105032;28;20542;-70
2022/03/30 03:55:20;;;;;;;25.60;11.30;;;5.30;99.90;;;;;;5108930;28;20043;-69
2022/03/30 03:57:47;;;;;;;25.88;12.50;;;5.30;99.90;;;;;;5093235;28;20069;-69
2022/03/30 04:00:15;;;;;;;25.52;11.27;;;5.30;99.90;;;;;;5096711;28;20043;-69
2022/03/30 04:02:42;;;;;;;;;;;5.40;99.90;;;;;;5092967;28;20040;-69
2022/03/30 04:05:10;;;;;;;23.60;10.88;;;5.40;99.90;;;;;;5092885;28;20014;-69
2022/03/30 04:07:38;;;;;;;23.30;10.55;;;5.40;99.90;;;;;;5093069;28;20044;-69
2022/03/30 04:10:09;;;;;;;24.30;11.50;;;5.40;99.90;;;;;;5096754;28;20047;-69
2022/03/30 04:12:38;;;;;;;20.52;11.55;;;5.40;99.90;;;;;;5106597;28;20047;-69
2022/03/30 04:15:07;;;;;;;27.98;11.65;;;5.50;99.90;;;;;;5104196;28;20040;-69
2022/03/30 04:17:34;;;;;;;20.80;9.15;;;5.50;99.90;;;;;;5110589;28;20097;-70
2022/03/30 04:20:01;;;;;;;20.75;9.77;;;5.40;99.90;;;;;;5104801;28;20512;-69
2022/03/30 04:22:28;;;;;;;19.35;10.15;;;5.20;99.90;;;;;;5104008;28;20032;-69
2022/03/30 04:24:55;;;;;;;24.15;9.80;;;5.20;99.90;;;;;;5111802;28;20047;-70
2022/03/30 04:27:22;;;;;;;22.75;9.48;;;5.10;99.90;;;;;;5109590;28;20279;-69
2022/03/30 04:29:49;;;;;;;22.13;10.20;;;5.10;99.90;;;;;;5095786;28;20044;-70
2022/03/30 04:32:16;;;;;;;23.50;10.55;;;5.20;99.90;;;;;;5112090;28;20124;-69
2022/03/30 04:34:43;;;;;;;20.80;9.70;;;5.10;99.90;;;;;;5106869;28;20054;-69
2022/03/30 04:37:14;;;;;;;21.10;9.27;;;5.10;99.90;;;;;;5101450;28;20131;-69
2022/03/30 04:39:41;;;;;;;21.42;9.52;;;5.10;99.90;;;;;;5109591;28;20405;-69
2022/03/30 04:42:08;;;;;;;22.15;9.40;;;5.10;99.90;;;;;;5106771;28;20052;-69
2022/03/30 04:44:35;;;;;;;22.77;9.82;;;5.20;99.90;;;;;;5107566;28;20105;-69
2022/03/30 04:47:01;;;;;;;19.02;9.70;;;5.20;99.90;;;;;;5105318;28;20047;-70
2022/03/30 04:49:28;;;;;;;17.40;9.48;;;5.20;99.90;;;;;;5110183;28;20047;-69
2022/03/30 04:51:55;;;;;;;24.30;10.70;;;5.20;99.90;;;;;;5108452;28;20035;-69
2022/03/30 04:54:22;;;;;;;24.90;11.65;;;5.30;99.90;;;;;;5109092;28;20044;-69
2022/03/30 04:56:51;;;;;;;23.42;11.73;;;5.30;99.90;;;;;;5111063;28;20450;-69
2022/03/30 04:59:19;;;;;;;26.23;11.88;;;5.30;99.90;;;;;;5109436;28;20036;-69
2022/03/30 05:01:45;;;;;;;27.90;12.43;;;5.20;99.90;;;;;;5108150;28;20065;-70
2022/03/30 05:04:12;;;;;;;23.35;11.88;;;5.20;99.90;;;;;;5106000;28;20047;-69
2022/03/30 05:06:39;;;;;;;20.27;11.05;;;5.30;99.90;;;;;;5110916;28;20063;-69
2022/03/30 05:09:06;;;;;;;27.70;11.02;;;5.30;99.90;;;;;;5109888;28;20078;-69
2022/03/30 05:11:33;;;;;;;31.67;11.48;;;5.30;99.90;;;;;;5102497;28;20372;-69
2022/03/30 05:14:00;;;;;;;26.45;10.57;;;5.30;99.90;;;;;;5083659;28;20036;-68
2022/03/30 05:16:28;;;;;;;22.92;9.98;;;5.30;99.90;;;;;;5091807;28;20492;-69
2022/03/30 05:18:55;;;;;;;20.23;10.73;;;5.20;99.90;;;;;;5083258;28;20044;-68
2022/03/30 05:21:22;;;;;;;21.48;10.68;;;5.10;99.90;;;;;;5102387;28;20105;-68
2022/03/30 05:23:49;;;;;;;;;;;5.10;99.90;;;;;;5111778;28;20541;-69
2022/03/30 05:26:16;;;;;;;21.95;9.73;;;5.20;99.90;;;;;;5104184;28;19919;-69
2022/03/30 05:28:43;;;;;;;19.50;10.68;;;5.20;99.90;;;;;;5106861;28;20104;-68
2022/03/30 05:31:10;;;;;;;27.05;10.52;;;5.20;99.90;;;;;;5099709;28;20036;-69
2022/03/30 05:33:37;;;;;;;23.13;10.80;;;5.20;99.90;;;;;;5091246;28;20052;-69
2022/03/30 05:36:06;;;;;;;20.95;11.20;;;5.20;99.90;;;;;;5094744;28;20403;-69
2022/03/30 05:38:34;;;;;;;29.55;10.82;;;5.30;99.90;;;;;;5105147;28;20044;-69
2022/03/30 05:41:02;;;;;;;;;;;5.40;99.90;;;;;;5091102;28;20071;-70
2022/03/30 05:43:29;;;;;;;24.13;11.17;;;5.40;99.90;;;;;;5072434;28;20352;-69
2022/03/30 05:45:56;;;;;;;27.88;11.30;;;5.60;99.90;;;;;;5093047;28;20290;-69
2022/03/30 05:48:24;;;;;;;25.10;10.65;;;5.60;99.90;;;;;;5106417;28;20067;-69
2022/03/30 05:50:53;;;;;;;;;;;5.70;99.90;;;;;;5091404;28;20123;-70
2022/03/30 05:53:20;;;;;;;22.67;10.40;;;5.80;99.90;;;;;;5091471;28;19927;-70
2022/03/30 05:55:47;;;;;;;;;;;5.90;99.90;;;;;;5100588;28;20051;-69
2022/03/30 05:58:14;;;;;;;33.92;11.55;;;5.90;99.90;;;;;;5099432;28;19967;-70
2022/03/30 06:00:42;;;;;;;32.00;12.55;;;6.00;99.90;;;;;;5091730;28;20051;-69
2022/03/30 06:03:10;;;;;;;25.42;12.38;;;6.00;99.90;;;;;;5098820;28;20044;-69
2022/03/30 06:05:37;;;;;;;28.67;13.38;;;6.10;99.90;;;;;;5108668;28;20051;-69
2022/03/30 06:08:05;;;;;;;;;;;5.90;99.90;;;;;;5095647;28;20040;-70
2022/03/30 06:10:33;;;;;;;26.17;12.85;;;6.00;99.90;;;;;;5095108;28;19926;-69
2022/03/30 06:13:01;;;;;;;;;;;6.20;99.90;;;;;;5097244;28;20431;-70
2022/03/30 06:15:30;;;;;;;23.65;10.85;;;6.20;99.90;;;;;;5107026;28;20398;-70
2022/03/30 06:17:58;;;;;;;28.15;12.25;;;6.30;99.90;;;;;;5115453;28;20042;-70
2022/03/30 06:20:25;;;;;;;25.77;12.80;;;6.30;99.90;;;;;;5115161;28;20044;-70
2022/03/30 06:22:54;;;;;;;32.78;14.00;;;6.30;99.90;;;;;;5113555;28;20047;-69
2022/03/30 06:25:24;;;;;;;25.58;12.93;;;6.40;99.90;;;;;;5094972;28;20466;-69
2022/03/30 06:27:52;;;;;;;33.10;12.80;;;6.50;99.90;;;;;;5094958;28;20058;-70
2022/03/30 06:30:19;;;;;;;36.92;15.45;;;6.60;99.90;;;;;;5099439;28;20088;-69
2022/03/30 06:32:49;;;;;;;33.63;15.10;;;6.70;99.90;;;;;;5106373;28;20063;-69
2022/03/30 06:35:18;;;;;;;32.78;15.15;;;6.90;99.90;;;;;;5094836;28;20043;-69
2022/03/30 06:37:46;;;;;;;30.20;14.60;;;7.00;99.90;;;;;;5094570;28;20051;-69
2022/03/30 06:40:15;;;;;;;27.40;14.90;;;7.00;99.90;;;;;;5098757;28;20119;-70
2022/03/30 06:42:42;;;;;;;29.70;14.25;;;7.10;99.90;;;;;;5106852;28;20044;-70
2022/03/30 06:45:10;;;;;;;34.83;16.73;;;7.20;99.90;;;;;;5094570;28;20714;-70
2022/03/30 06:47:38;;;;;;;30.85;14.52;;;7.30;99.90;;;;;;5094985;28;20508;-69
2022/03/30 06:50:07;;;;;;;36.78;16.20;;;7.40;99.90;;;;;;5111199;28;20449;-70
2022/03/30 06:52:35;;;;;;;38.25;15.68;;;7.50;99.90;;;;;;5076094;28;20044;-70
2022/03/30 06:55:05;;;;;;;39.28;16.48;;;7.50;99.90;;;;;;5094491;28;20439;-69
2022/03/30 06:57:32;;;;;;;33.03;16.65;;;7.60;99.90;;;;;;5102755;28;20035;-70
2022/03/30 06:59:59;;;;;;;33.35;14.50;;;7.60;99.90;;;;;;5112406;28;20051;-69
2022/03/30 07:02:26;;;;;;;43.90;17.38;;;7.70;99.90;;;;;;5096321;28;20051;-70
2022/03/30 07:04:53;;;;;;;31.20;16.58;;;7.70;99.90;;;;;;5110860;28;20036;-70
2022/03/30 07:10:15;;;;;;;33.08;15.40;;;7.80;99.90;;;;;;5094011;28;20060;-70
2022/03/30 07:12:44;;;;;;;36.03;15.65;;;7.80;99.90;;;;;;5092230;28;20039;-70
2022/03/30 07:15:16;;;;;;;33.80;16.50;;;7.90;99.90;;;;;;5085063;28;20432;-70
2022/03/30 07:17:54;;;;;;;31.15;15.65;;;7.90;99.90;;;;;;5110216;28;20689;-70
2022/03/30 07:20:27;;;;;;;33.30;15.95;;;8.00;99.90;;;;;;5114142;28;20122;-70
2022/03/30 07:22:55;;;;;;;36.40;16.40;;;8.10;99.90;;;;;;5108524;28;20055;-69
2022/03/30 07:25:22;;;;;;;30.65;15.68;;;8.10;99.90;;;;;;5100852;28;20044;-70
2022/03/30 07:27:52;;;;;;;35.08;17.92;;;8.10;99.90;;;;;;5093629;28;20514;-70
2022/03/30 07:35:22;;;;;;;35.00;16.58;;;8.10;99.90;;;;;;5063346;28;20127;-72
2022/03/30 07:37:49;;;;;;;31.13;14.68;;;8.10;99.90;;;;;;5092682;28;20047;-72
2022/03/30 07:40:24;;;;;;;37.42;16.05;;;8.20;99.90;;;;;;5099460;28;20050;-72
2022/03/30 07:42:54;;;;;;;30.13;15.80;;;8.20;99.90;;;;;;5104924;28;20449;-72
2022/03/30 07:45:21;;;;;;;31.45;16.80;;;8.30;99.90;;;;;;5113814;28;20048;-72
2022/03/30 07:47:49;;;;;;;31.13;15.38;;;8.40;99.90;;;;;;5113710;28;20407;-73
2022/03/30 07:50:15;;;;;;;;;;;8.40;99.90;;;;;;5112215;28;20036;-72
2022/03/30 07:52:43;;;;;;;33.08;17.08;;;8.50;99.90;;;;;;5105193;28;19919;-73
2022/03/30 07:55:12;;;;;;;30.52;16.35;;;8.60;99.90;;;;;;5104932;28;20047;-73
2022/03/30 07:57:39;;;;;;;33.38;15.30;;;8.80;99.90;;;;;;5113566;28;20043;-72
2022/03/30 08:00:09;;;;;;;38.40;16.70;;;8.90;99.90;;;;;;5109917;28;20036;-74
2022/03/30 08:02:37;;;;;;;33.45;16.63;;;9.00;99.90;;;;;;5107953;28;20154;-74
2022/03/30 08:05:05;;;;;;;26.23;15.38;;;9.10;99.90;;;;;;5113241;28;20406;-74
2022/03/30 08:07:34;;;;;;;35.75;15.35;;;9.00;99.90;;;;;;5112776;28;20093;-73
2022/03/30 08:10:01;;;;;;;33.05;15.45;;;8.90;99.90;;;;;;5104680;28;20051;-73
2022/03/30 08:12:29;;;;;;;32.50;14.48;;;9.00;99.90;;;;;;5112968;28;20423;-73
2022/03/30 08:14:56;;;;;;;33.83;15.25;;;9.00;99.90;;;;;;5112550;28;20487;-73
2022/03/30 08:17:24;;;;;;;28.63;15.32;;;9.00;99.90;;;;;;5107820;28;20394;-73
2022/03/30 08:19:51;;;;;;;27.98;14.30;;;9.20;99.90;;;;;;5110081;28;20039;-74
2022/03/30 08:22:28;;;;;;;33.78;15.73;;;9.40;99.90;;;;;;5112608;28;20044;-74
2022/03/30 08:25:01;;;;;;;27.75;14.15;;;9.50;99.90;;;;;;5111940;28;20035;-74
2022/03/30 08:27:31;;;;;;;33.55;14.93;;;9.60;99.90;;;;;;5104264;28;20518;-74
2022/03/30 08:29:58;;;;;;;27.13;14.80;;;9.50;99.90;;;;;;5094748;28;20097;-73
2022/03/30 08:32:26;;;;;;;28.60;15.80;;;9.60;99.90;;;;;;5112741;28;20035;-74
2022/03/30 08:34:55;;;;;;;31.70;15.20;;;9.70;99.90;;;;;;5112211;28;20050;-74
2022/03/30 08:37:24;;;;;;;35.38;15.07;;;10.00;99.90;;;;;;5104290;28;20093;-74
2022/03/30 08:39:53;;;;;;;36.30;15.23;;;10.20;99.90;;;;;;5112835;28;20488;-74
2022/03/30 08:42:21;;;;;;;24.27;13.20;;;10.40;99.90;;;;;;5112139;28;20050;-74
2022/03/30 08:44:51;;;;;;;;;;;10.40;99.90;;;;;;5112411;28;20043;-74
2022/03/30 08:47:19;;;;;;;26.30;13.43;;;10.60;99.90;;;;;;5105085;28;19927;-74
2022/03/30 08:49:50;;;;;;;38.28;14.52;;;10.70;99.90;;;;;;5112298;28;20105;-74
2022/03/30 08:52:18;;;;;;;26.85;14.20;;;10.60;99.90;;;;;;5112203;28;20092;-74
2022/03/30 08:54:49;;;;;;;29.45;13.55;;;10.60;99.90;;;;;;5103711;28;20101;-74
2022/03/30 08:57:17;;;;;;;23.80;13.63;;;10.90;99.90;;;;;;5092200;28;20044;-74
2022/03/30 09:00:09;;;;;;;30.80;13.55;;;11.00;99.90;;;;;;5091801;28;20048;-75
2022/03/30 09:02:46;;;;;;;30.92;14.00;;;11.00;99.90;;;;;;5097856;28;20040;-74
2022/03/30 09:05:22;;;;;;;26.63;13.20;;;10.80;99.90;;;;;;5100237;28;20488;-74
2022/03/30 09:08:05;;;;;;;25.50;13.13;;;10.90;99.90;;;;;;5092022;28;20545;-73
2022/03/30 09:10:32;;;;;;;34.60;13.73;;;11.10;99.90;;;;;;5091902;28;20047;-74
2022/03/30 09:13:00;;;;;;;28.52;13.48;;;11.20;99.90;;;;;;5102627;28;20404;-73
2022/03/30 09:15:27;;;;;;;31.50;13.90;;;11.40;99.90;;;;;;5093870;28;20051;-74
2022/03/30 09:17:59;;;;;;;29.60;14.32;;;11.50;99.90;;;;;;5112269;28;20481;-73
2022/03/30 09:20:35;;;;;;;28.75;13.63;;;11.60;99.90;;;;;;5104971;28;20488;-74
2022/03/30 09:23:05;;;;;;;30.98;14.93;;;11.80;99.90;;;;;;5110359;28;20089;-74
2022/03/30 09:25:50;;;;;;;27.58;14.00;;;11.80;99.90;;;;;;5111912;28;20119;-74
2022/03/30 09:28:19;;;;;;;26.30;13.93;;;12.00;99.90;;;;;;5107206;28;20072;-74
2022/03/30 09:30:48;;;;;;;26.23;14.98;;;12.00;99.90;;;;;;5108112;28;20055;-74
2022/03/30 09:33:24;;;;;;;25.83;13.93;;;12.00;99.90;;;;;;5111660;28;20040;-74
2022/03/30 09:35:51;;;;;;;29.75;13.98;;;11.80;99.90;;;;;;5092006;28;20039;-74
2022/03/30 09:38:19;;;;;;;;;;;11.80;99.90;;;;;;5104705;28;20495;-74
2022/03/30 09:40:51;;;;;;;25.92;13.93;;;11.70;99.90;;;;;;5111835;28;20022;-74
2022/03/30 09:43:21;;;;;;;26.92;14.15;;;11.70;99.90;;;;;;5111260;28;20058;-74
2022/03/30 09:46:11;;;;;;;27.05;13.93;;;11.90;99.90;;;;;;5103750;28;20040;-74
2022/03/30 09:48:49;;;;;;;27.67;14.45;;;11.80;99.90;;;;;;5111924;28;20085;-74
2022/03/30 09:51:18;;;;;;;30.45;14.32;;;11.80;99.90;;;;;;5111399;28;20035;-74
2022/03/30 09:53:46;;;;;;;27.75;13.70;;;12.20;99.90;;;;;;5103037;28;20052;-74
2022/03/30 09:56:16;;;;;;;27.30;13.73;;;12.40;99.10;;;;;;5091698;28;20051;-74
2022/03/30 09:58:44;;;;;;;23.80;13.85;;;12.80;98.80;;;;;;5091300;28;20113;-74
2022/03/30 10:01:19;;;;;;;23.25;11.50;;;13.00;97.40;;;;;;5094328;28;20044;-74
2022/03/30 10:03:49;;;;;;;20.50;11.55;;;13.20;96.10;;;;;;5103230;28;20048;-74
2022/03/30 10:06:26;;;;;;;24.65;13.23;;;13.40;95.40;;;;;;5091282;28;20488;-73
2022/03/30 10:08:55;;;;;;;26.33;13.30;;;13.50;95.50;;;;;;5091207;28;20044;-74
2022/03/30 10:11:23;;;;;;;25.20;12.70;;;13.50;94.30;;;;;;5098061;28;20036;-74
2022/03/30 10:13:54;;;;;;;26.98;12.35;;;13.60;95.10;;;;;;5102925;28;20051;-74
2022/03/30 10:16:43;;;;;;;26.70;11.70;;;13.80;95.20;;;;;;5111487;28;20097;-74
2022/03/30 10:19:10;;;;;;;18.33;11.18;;;14.00;93.30;;;;;;5110709;28;20097;-73
2022/03/30 10:22:13;;;;;;;18.80;11.45;;;14.30;92.80;;;;;;5104038;28;20071;-74
2022/03/30 10:24:50;;;;;;;20.25;11.48;;;14.20;92.80;;;;;;5091227;28;20052;-74
2022/03/30 10:27:30;;;;;;;23.25;12.13;;;14.00;93.50;;;;;;5091049;28;20241;-74
2022/03/30 10:30:06;;;;;;;20.27;10.90;;;14.10;93.90;;;;;;5100603;28;20056;-74
2022/03/30 10:32:36;;;;;;;25.80;11.55;;;14.10;94.60;;;;;;5110946;28;20035;-74
2022/03/30 10:35:11;;;;;;;22.42;12.13;;;14.10;95.00;;;;;;5111703;28;20044;-74
2022/03/30 10:37:44;;;;;;;28.70;12.52;;;14.30;94.50;;;;;;5105724;28;20051;-74
2022/03/30 10:40:29;;;;;;;21.02;11.98;;;14.50;94.00;;;;;;5102664;28;20036;-73
2022/03/30 10:43:02;;;;;;;21.10;11.60;;;14.80;92.90;;;;;;5110788;28;20043;-74
2022/03/30 10:45:49;;;;;;;19.63;11.52;;;14.80;92.60;;;;;;5110855;28;20547;-74
2022/03/30 10:48:28;;;;;;;33.33;10.85;;;15.00;92.70;;;;;;5106261;28;20115;-74
2022/03/30 10:51:00;;;;;;;27.50;10.38;;;15.10;91.30;;;;;;5114533;28;20039;-73
2022/03/30 10:53:30;;;;;;;27.95;11.57;;;15.30;92.00;;;;;;5111607;28;20108;-73
2022/03/30 10:56:18;;;;;;;24.30;11.10;;;15.30;91.80;;;;;;5106616;28;20054;-74
2022/03/30 10:58:59;;;;;;;29.13;10.75;;;15.50;91.80;;;;;;5114812;28;20052;-74
2022/03/30 11:01:31;;;;;;;35.83;10.45;;;15.50;91.20;;;;;;5114410;28;20043;-73
2022/03/30 11:04:02;;;;;;;27.17;11.35;;;15.50;91.00;;;;;;5105566;28;20044;-73
2022/03/30 11:06:39;;;;;;;30.88;10.40;;;15.30;90.80;;;;;;5108488;28;20547;-73
2022/03/30 11:09:07;;;;;;;30.52;11.45;;;15.20;90.80;;;;;;5114691;28;20050;-73
2022/03/30 11:11:42;;;;;;;25.25;10.45;;;14.90;91.20;;;;;;5114062;28;20040;-73
2022/03/30 11:14:24;;;;;;;32.10;11.48;;;14.70;90.90;;;;;;5110649;28;20032;-72
2022/03/30 11:17:12;;;;;;;27.60;10.88;;;14.60;91.90;;;;;;5111538;28;20044;-74
2022/03/30 11:19:48;;;;;;;32.92;10.98;;;14.60;92.30;;;;;;5113947;28;20100;-73
2022/03/30 11:22:30;;;;;;;37.55;10.88;;;14.60;92.10;;;;;;5109961;28;20111;-74
2022/03/30 11:25:10;;;;;;;35.47;11.00;;;14.70;91.80;;;;;;5093692;28;20059;-74
2022/03/30 11:27:39;;;;;;;33.30;10.48;;;14.60;92.00;;;;;;5093907;28;20085;-73
2022/03/30 11:30:10;;;;;;;29.50;10.20;;;14.60;92.30;;;;;;5096630;28;20040;-73
2022/03/30 11:32:43;;;;;;;30.80;11.32;;;14.60;91.80;;;;;;5105189;28;20381;-73
2022/03/30 11:35:13;;;;;;;29.15;11.00;;;14.60;92.20;;;;;;5114008;28;20271;-74
2022/03/30 11:37:45;;;;;;;26.02;10.90;;;14.60;92.40;;;;;;5113883;28;20499;-73
2022/03/30 11:40:18;;;;;;;31.73;11.98;;;14.60;92.90;;;;;;5110137;28;20040;-73
2022/03/30 11:42:52;;;;;;;31.52;11.15;;;14.70;93.20;;;;;;5109810;28;20530;-73
2022/03/30 11:45:33;;;;;;;29.88;10.57;;;14.80;93.30;;;;;;5113864;28;20032;-73
2022/03/30 11:48:10;;;;;;;37.20;10.18;;;14.90;92.90;;;;;;5111225;28;20081;-73
2022/03/30 11:50:41;;;;;;;32.28;9.35;;;14.90;92.60;;;;;;5108800;28;20660;-73
2022/03/30 11:53:11;;;;;;;32.22;9.93;;;15.10;92.80;;;;;;5113385;28;20127;-73
2022/03/30 11:55:50;;;;;;;28.73;9.82;;;15.00;92.80;;;;;;5112969;28;20098;-73
2022/03/30 11:58:34;;;;;;;33.70;9.98;;;15.10;92.30;;;;;;5100788;28;20047;-73
2022/03/30 12:01:05;;;;;;;32.45;10.43;;;15.20;92.50;;;;;;5092788;28;20036;-73
2022/03/30 12:03:34;;;;;;;31.15;8.90;;;15.30;92.30;;;;;;5093052;28;20063;-73
2022/03/30 12:06:03;;;;;;;27.08;9.10;;;15.30;91.50;;;;;;5101729;28;20043;-73
2022/03/30 12:08:43;;;;;;;34.47;10.70;;;15.40;91.90;;;;;;5107349;28;20122;-73
2022/03/30 12:11:10;;;;;;;37.25;9.43;;;15.60;92.40;;;;;;5112765;28;20407;-73
2022/03/30 12:13:38;;;;;;;35.80;9.88;;;15.80;91.50;;;;;;5105631;28;20048;-73
2022/03/30 12:16:12;;;;;;;;;;;15.80;90.60;;;;;;5112656;28;20040;-73
2022/03/30 12:18:48;;;;;;;35.00;10.50;;;15.80;90.30;;;;;;5113286;28;20387;-73
2022/03/30 12:21:22;;;;;;;41.72;11.77;;;16.00;91.00;;;;;;5105382;28;20488;-72
2022/03/30 12:24:16;;;;;;;27.45;10.05;;;16.20;90.20;;;;;;5109507;28;20050;-74
2022/03/30 12:26:50;;;;;;;31.20;11.05;;;16.20;89.60;;;;;;5113116;28;20039;-74
2022/03/30 12:29:18;;;;;;;34.80;11.55;;;16.20;86.90;;;;;;5109246;28;20036;-73
2022/03/30 12:31:57;;;;;;;34.70;11.38;;;16.00;85.60;;;;;;5103997;28;20040;-73
2022/03/30 12:34:26;;;;;;;26.58;11.13;;;16.00;86.40;;;;;;5113009;28;20495;-73
2022/03/30 12:37:00;;;;;;;30.23;11.85;;;16.00;89.90;;;;;;5112815;28;20043;-73
2022/03/30 12:39:33;;;;;;;35.92;12.55;;;15.90;89.30;;;;;;5112123;28;20039;-73
2022/03/30 12:42:06;;;;;;;41.85;13.55;;;15.90;89.10;;;;;;5103781;28;20048;-73
2022/03/30 12:44:46;;;;;;;32.30;12.60;;;15.90;87.80;;;;;;5112693;28;20046;-73
2022/03/30 12:47:32;;;;;;;32.13;12.73;;;16.10;85.60;;;;;;5104095;28;20052;-73
2022/03/30 12:50:10;;;;;;;26.83;11.88;;;16.20;85.40;;;;;;5104008;28;20039;-73
2022/03/30 12:52:44;;;;;;;26.10;11.95;;;16.30;84.40;;;;;;5112297;28;20043;-73
2022/03/30 12:55:15;;;;;;;37.10;14.30;;;16.50;81.50;;;;;;5112342;28;20071;-73
2022/03/30 12:57:56;;;;;;;32.22;12.88;;;16.60;81.90;;;;;;5102136;28;20052;-73
2022/03/30 13:00:28;;;;;;;29.63;12.55;;;16.80;81.20;;;;;;5092038;28;20117;-73
2022/03/30 13:03:07;;;;;;;28.63;12.50;;;17.00;79.80;;;;;;5091659;28;20055;-73
2022/03/30 13:05:37;;;;;;;25.20;12.30;;;17.00;77.60;;;;;;5105741;28;20084;-72
2022/03/30 13:08:15;;;;;;;31.70;13.02;;;16.80;78.40;;;;;;5103532;28;20047;-73